Time;durP1;ratioP1;P1;durP2;ratioP2;P2;SDS_P1;SDS_P2;PMS_P1;PMS_P2;Temp;Humidity;BMP_temperature;BMP_pressure;BME280_temperature;BME280_humidity;BME280_pressure;Samples;Min_cycle;Max_cycle;Signal;HPM_P1;HPM_P2
2021/08/20 00:01:52;;;;;;;9.77;8.10;;;15.40;99.90;;;;;;5054579;28;20051;-68
2021/08/20 00:04:18;;;;;;;10.17;7.83;;;15.30;99.90;;;;;;5055555;28;20148;-68
2021/08/20 00:06:43;;;;;;;10.43;7.67;;;15.30;99.90;;;;;;5055214;28;20478;-68
2021/08/20 00:09:09;;;;;;;9.63;7.70;;;15.30;99.90;;;;;;5054639;28;20490;-68
2021/08/20 00:11:39;;;;;;;12.23;8.73;;;15.30;99.90;;;;;;5055250;28;20048;-68
2021/08/20 00:14:06;;;;;;;15.50;9.13;;;15.30;99.90;;;;;;5055485;28;20048;-68
2021/08/20 00:16:31;;;;;;;10.23;8.57;;;15.30;99.90;;;;;;5054828;28;20061;-69
2021/08/20 00:18:57;;;;;;;12.13;9.27;;;15.30;99.90;;;;;;5055058;28;20068;-69
2021/08/20 00:21:23;;;;;;;12.27;8.80;;;15.20;99.90;;;;;;5055272;28;20076;-68
2021/08/20 00:23:48;;;;;;;12.60;8.97;;;15.20;99.90;;;;;;5054223;28;20045;-69
2021/08/20 00:26:16;;;;;;;15.60;9.47;;;15.20;99.90;;;;;;5054965;28;20488;-68
2021/08/20 00:28:42;;;;;;;10.47;9.37;;;15.10;99.90;;;;;;5054865;28;20045;-69
2021/08/20 00:31:08;;;;;;;11.63;9.67;;;15.10;99.90;;;;;;5054553;28;20056;-69
2021/08/20 00:33:35;;;;;;;11.90;9.53;;;15.10;99.90;;;;;;5055363;28;20059;-69
2021/08/20 00:36:02;;;;;;;15.03;10.37;;;15.00;99.90;;;;;;5054633;28;20131;-69
2021/08/20 00:38:29;;;;;;;17.53;9.80;;;15.00;99.90;;;;;;5054026;28;20075;-69
2021/08/20 00:40:54;;;;;;;19.43;10.47;;;15.00;99.90;;;;;;5054728;28;20045;-69
2021/08/20 00:43:22;;;;;;;12.37;10.30;;;15.00;99.90;;;;;;5054918;28;20387;-69
2021/08/20 00:46:00;;;;;;;15.23;11.20;;;14.90;99.90;;;;;;5053643;28;20041;-69
2021/08/20 00:48:27;;;;;;;14.63;11.03;;;14.90;99.90;;;;;;5054945;28;20052;-69
2021/08/20 00:51:02;;;;;;;16.83;11.00;;;14.90;99.90;;;;;;5054228;28;20041;-69
2021/08/20 00:53:33;;;;;;;15.07;11.50;;;14.80;99.90;;;;;;5054756;28;20049;-69
2021/08/20 00:56:01;;;;;;;13.30;10.57;;;14.80;99.90;;;;;;5054076;28;20520;-69
2021/08/20 00:58:34;;;;;;;15.27;10.97;;;14.80;99.90;;;;;;5053243;28;20303;-69
2021/08/20 01:01:02;;;;;;;15.80;11.73;;;14.80;99.90;;;;;;5054451;28;20045;-68
2021/08/20 01:03:28;;;;;;;14.27;10.83;;;14.80;99.90;;;;;;5054394;28;20375;-69
2021/08/20 01:05:56;;;;;;;17.10;11.90;;;14.80;99.90;;;;;;5053761;28;20055;-69
2021/08/20 01:08:22;;;;;;;15.70;11.77;;;14.80;99.90;;;;;;5055273;28;20128;-69
2021/08/20 01:10:50;;;;;;;16.83;12.57;;;14.80;99.90;;;;;;5054187;28;20053;-68
2021/08/20 01:13:17;;;;;;;19.83;13.17;;;14.90;99.90;;;;;;5053345;28;20128;-68
2021/08/20 01:15:43;;;;;;;19.37;13.20;;;14.80;99.90;;;;;;5053954;28;20059;-69
2021/08/20 01:18:08;;;;;;;18.67;13.70;;;14.90;99.90;;;;;;5054095;28;20044;-70
2021/08/20 01:20:34;;;;;;;19.07;14.00;;;14.80;99.90;;;;;;5053486;28;20053;-68
2021/08/20 01:23:00;;;;;;;22.90;14.57;;;14.80;99.90;;;;;;5054103;28;20072;-68
2021/08/20 01:25:25;;;;;;;22.57;15.30;;;14.80;99.90;;;;;;5054168;28;20044;-68
2021/08/20 01:28:08;;;;;;;23.83;15.33;;;14.80;99.90;;;;;;5053034;28;20567;-69
2021/08/20 01:30:34;;;;;;;22.90;15.90;;;14.80;99.90;;;;;;5053846;28;20049;-69
2021/08/20 01:32:59;;;;;;;21.83;16.27;;;14.80;99.90;;;;;;5053535;28;20049;-69
2021/08/20 01:35:25;;;;;;;23.63;17.27;;;14.80;99.90;;;;;;5053491;28;20402;-69
2021/08/20 01:37:51;;;;;;;24.97;15.90;;;14.70;99.90;;;;;;5053641;28;20126;-70
2021/08/20 01:40:16;;;;;;;27.07;17.13;;;14.70;99.90;;;;;;5053217;28;20194;-69
2021/08/20 01:42:42;;;;;;;33.90;18.97;;;14.70;99.90;;;;;;5053438;28;20048;-69
2021/08/20 01:45:08;;;;;;;27.20;18.10;;;14.70;99.90;;;;;;5053650;28;20513;-70
2021/08/20 01:47:34;;;;;;;29.63;18.80;;;14.70;99.90;;;;;;5053102;28;20097;-69
2021/08/20 01:49:59;;;;;;;33.13;20.40;;;14.70;99.90;;;;;;5053717;28;20102;-69
2021/08/20 01:52:26;;;;;;;31.77;19.03;;;14.70;99.90;;;;;;5053510;28;20049;-69
2021/08/20 01:54:52;;;;;;;36.00;21.63;;;14.70;99.90;;;;;;5052300;28;20474;-69
2021/08/20 01:57:17;;;;;;;36.60;22.07;;;14.70;99.90;;;;;;5053412;28;20055;-69
2021/08/20 01:59:43;;;;;;;36.53;22.53;;;14.70;99.90;;;;;;5053312;28;20052;-70
2021/08/20 02:02:09;;;;;;;38.80;25.73;;;14.70;99.90;;;;;;5052398;28;20485;-69
2021/08/20 02:04:34;;;;;;;38.97;26.10;;;14.70;99.90;;;;;;5053155;28;20424;-70
2021/08/20 02:07:00;;;;;;;42.33;25.43;;;14.70;99.90;;;;;;5053252;28;20075;-70
2021/08/20 02:09:26;;;;;;;39.93;24.13;;;14.70;99.90;;;;;;5051622;28;20125;-69
2021/08/20 02:11:52;;;;;;;42.87;26.13;;;14.70;99.90;;;;;;5052954;28;20045;-70
2021/08/20 02:14:18;;;;;;;44.43;26.73;;;14.80;99.90;;;;;;5053044;28;20250;-70
2021/08/20 02:16:43;;;;;;;43.83;27.07;;;14.80;99.90;;;;;;5051755;28;20045;-70
2021/08/20 02:19:09;;;;;;;41.67;27.93;;;14.80;99.90;;;;;;5053155;28;20121;-69
2021/08/20 02:21:35;;;;;;;43.13;28.23;;;14.80;99.90;;;;;;5053036;28;20044;-70
2021/08/20 02:24:01;;;;;;;48.87;28.83;;;14.80;99.90;;;;;;5051953;28;20524;-70
2021/08/20 02:26:26;;;;;;;47.30;30.07;;;14.80;99.90;;;;;;5052782;28;20503;-70
2021/08/20 02:28:52;;;;;;;52.33;29.90;;;14.80;99.90;;;;;;5052598;28;20064;-70
2021/08/20 02:31:18;;;;;;;50.80;30.60;;;14.80;99.90;;;;;;5052213;28;20547;-69
2021/08/20 02:33:45;;;;;;;54.10;30.83;;;14.90;99.90;;;;;;5052621;28;20053;-70
2021/08/20 02:36:12;;;;;;;52.03;30.43;;;14.80;99.90;;;;;;5052694;28;20498;-70
2021/08/20 02:38:38;;;;;;;51.97;32.73;;;14.80;99.90;;;;;;5051815;28;20094;-70
2021/08/20 02:41:04;;;;;;;51.03;32.37;;;14.80;99.90;;;;;;5052321;28;20049;-70
2021/08/20 02:43:30;;;;;;;52.50;31.47;;;14.80;99.90;;;;;;5051962;28;20041;-70
2021/08/20 02:45:56;;;;;;;57.83;34.30;;;14.90;99.90;;;;;;5052362;28;20060;-70
2021/08/20 02:48:23;;;;;;;55.70;34.30;;;14.80;99.90;;;;;;5053068;28;20437;-70
2021/08/20 02:50:50;;;;;;;56.17;35.00;;;14.80;99.90;;;;;;5051638;28;20075;-69
2021/08/20 02:53:16;;;;;;;57.17;33.87;;;14.70;99.90;;;;;;5052354;28;20053;-69
2021/08/20 02:55:42;;;;;;;54.83;34.40;;;14.80;99.90;;;;;;5051914;28;20378;-70
2021/08/20 02:58:08;;;;;;;52.97;32.63;;;14.80;99.90;;;;;;5051491;28;20044;-70
2021/08/20 03:00:34;;;;;;;54.47;35.57;;;14.70;99.90;;;;;;5052418;28;20033;-70
2021/08/20 03:03:00;;;;;;;56.23;35.80;;;14.70;99.90;;;;;;5051983;28;20497;-70
2021/08/20 03:05:26;;;;;;;59.73;36.57;;;14.70;99.90;;;;;;5051663;28;20049;-70
2021/08/20 03:07:52;;;;;;;60.80;36.83;;;14.70;99.90;;;;;;5051648;28;20127;-70
2021/08/20 03:10:18;;;;;;;58.43;36.47;;;14.80;99.90;;;;;;5052041;28;20405;-70
2021/08/20 03:12:44;;;;;;;63.47;36.93;;;14.70;99.90;;;;;;5051182;28;20080;-70
2021/08/20 03:15:10;;;;;;;62.77;36.63;;;14.70;99.90;;;;;;5052103;28;20490;-70
2021/08/20 03:17:36;;;;;;;60.57;34.97;;;14.70;99.90;;;;;;5052264;28;20063;-70
2021/08/20 03:20:03;;;;;;;60.37;36.97;;;14.70;99.90;;;;;;5050520;28;20557;-70
2021/08/20 03:22:29;;;;;;;64.80;37.43;;;14.70;99.90;;;;;;5052638;28;20087;-72
2021/08/20 03:24:54;;;;;;;63.50;38.07;;;14.70;99.90;;;;;;5052390;28;20478;-70
2021/08/20 03:27:23;;;;;;;62.23;36.70;;;14.80;99.90;;;;;;5051307;28;20048;-70
2021/08/20 03:29:49;;;;;;;56.47;35.67;;;14.70;99.90;;;;;;5051436;28;20045;-70
2021/08/20 03:32:15;;;;;;;58.67;36.30;;;14.70;99.90;;;;;;5052042;28;20051;-70
2021/08/20 03:34:40;;;;;;;55.90;37.23;;;14.70;99.90;;;;;;5050970;28;20052;-70
2021/08/20 03:37:06;;;;;;;57.87;36.70;;;14.70;99.90;;;;;;5051827;28;20387;-70
2021/08/20 03:39:32;;;;;;;53.00;36.33;;;14.70;99.90;;;;;;5052113;28;20395;-70
2021/08/20 03:41:58;;;;;;;57.30;37.83;;;14.70;99.90;;;;;;5050742;28;21036;-70
2021/08/20 03:44:23;;;;;;;60.00;36.57;;;14.70;99.90;;;;;;5052011;28;20059;-70
2021/08/20 03:46:49;;;;;;;54.10;37.20;;;14.70;99.90;;;;;;5050870;28;20045;-70
2021/08/20 03:49:14;;;;;;;59.63;36.53;;;14.70;99.90;;;;;;5051591;28;20044;-70
2021/08/20 03:51:40;;;;;;;54.23;34.53;;;14.70;99.90;;;;;;5051236;28;20053;-70
2021/08/20 03:54:06;;;;;;;58.83;36.83;;;14.70;99.90;;;;;;5051017;28;20048;-71
2021/08/20 03:56:32;;;;;;;58.57;38.37;;;14.70;99.90;;;;;;5051819;28;20382;-71
2021/08/20 03:58:58;;;;;;;52.80;36.13;;;14.70;99.90;;;;;;5051367;28;20076;-70
2021/08/20 04:01:25;;;;;;;56.87;36.13;;;14.70;99.90;;;;;;5051075;28;20044;-70
2021/08/20 04:03:50;;;;;;;65.33;37.57;;;14.70;99.90;;;;;;5050455;28;20124;-70
2021/08/20 04:06:16;;;;;;;60.17;37.93;;;14.70;99.90;;;;;;5051853;28;20088;-70
2021/08/20 04:08:42;;;;;;;54.53;36.47;;;14.70;99.90;;;;;;5050720;28;20106;-70
2021/08/20 04:11:11;;;;;;;55.90;38.17;;;14.70;99.90;;;;;;5051665;28;20049;-70
2021/08/20 04:13:38;;;;;;;57.37;37.30;;;14.70;99.90;;;;;;5051725;28;20060;-70
2021/08/20 04:16:04;;;;;;;67.93;38.43;;;14.70;99.90;;;;;;5050574;28;20049;-70
2021/08/20 04:18:29;;;;;;;56.83;37.53;;;14.70;99.90;;;;;;5051556;28;20069;-70
2021/08/20 04:20:56;;;;;;;57.83;37.93;;;14.60;99.90;;;;;;5050769;28;20106;-70
2021/08/20 04:23:22;;;;;;;55.77;37.80;;;14.60;99.90;;;;;;5050701;28;20049;-70
2021/08/20 04:25:47;;;;;;;57.47;36.60;;;14.60;99.90;;;;;;5050511;28;20052;-70
2021/08/20 04:28:13;;;;;;;57.87;36.93;;;14.60;99.90;;;;;;5051243;28;20148;-70
2021/08/20 04:30:39;;;;;;;58.80;36.67;;;14.60;99.90;;;;;;5050076;28;20056;-71
2021/08/20 04:33:04;;;;;;;61.17;37.33;;;14.60;99.90;;;;;;5053104;28;20065;-70
2021/08/20 04:35:31;;;;;;;63.77;38.23;;;14.60;99.90;;;;;;5054265;28;20053;-70
2021/08/20 04:37:57;;;;;;;62.27;38.10;;;14.60;99.90;;;;;;5053853;28;20044;-70
2021/08/20 04:40:23;;;;;;;49.97;33.13;;;14.60;99.90;;;;;;5054260;28;20588;-70
2021/08/20 04:42:48;;;;;;;59.73;39.97;;;14.60;99.90;;;;;;5054214;28;20136;-70
2021/08/20 04:45:15;;;;;;;61.70;39.23;;;14.60;99.90;;;;;;5053574;28;20095;-70
2021/08/20 04:47:44;;;;;;;58.20;37.97;;;14.60;99.90;;;;;;5054218;28;20116;-71
2021/08/20 04:50:11;;;;;;;61.27;39.20;;;14.60;99.90;;;;;;5053125;28;20595;-70
2021/08/20 04:52:37;;;;;;;57.60;37.97;;;14.60;99.90;;;;;;5038806;28;20490;-70
2021/08/20 04:55:03;;;;;;;61.77;36.93;;;14.60;99.90;;;;;;5033843;28;20045;-70
2021/08/20 04:57:30;;;;;;;68.50;39.63;;;14.70;99.90;;;;;;5033797;28;20041;-70
2021/08/20 04:59:58;;;;;;;58.77;38.40;;;14.70;99.90;;;;;;5034214;28;20049;-70
2021/08/20 05:02:27;;;;;;;61.60;39.00;;;14.70;99.90;;;;;;5034473;28;20158;-70
2021/08/20 05:04:53;;;;;;;57.30;37.70;;;14.70;99.90;;;;;;5033311;28;20052;-73
2021/08/20 05:07:19;;;;;;;66.23;36.93;;;14.80;99.90;;;;;;5034414;28;20045;-71
2021/08/20 05:09:45;;;;;;;58.47;38.90;;;14.80;99.90;;;;;;5033890;28;20054;-71
2021/08/20 05:12:11;;;;;;;57.77;34.43;;;14.70;99.90;;;;;;5033216;28;20398;-71
2021/08/20 05:14:37;;;;;;;58.50;35.70;;;14.70;99.90;;;;;;5034086;28;20406;-71
2021/08/20 05:17:04;;;;;;;66.37;38.20;;;14.70;99.90;;;;;;5033614;28;20057;-71
2021/08/20 05:19:29;;;;;;;58.50;38.87;;;14.70;99.90;;;;;;5033240;28;20054;-72
2021/08/20 05:21:55;;;;;;;63.43;38.70;;;14.70;99.90;;;;;;5033246;28;20068;-72
2021/08/20 05:24:21;;;;;;;60.57;38.37;;;14.70;99.90;;;;;;5034091;28;20154;-71
2021/08/20 05:26:46;;;;;;;59.50;37.63;;;14.70;99.90;;;;;;5032727;28;20549;-72
2021/08/20 05:29:12;;;;;;;59.97;37.33;;;14.70;99.90;;;;;;5033890;28;20053;-71
2021/08/20 05:31:38;;;;;;;63.53;38.87;;;14.70;99.90;;;;;;5033900;28;20046;-71
2021/08/20 05:34:06;;;;;;;66.27;38.77;;;14.70;99.90;;;;;;5032650;28;20060;-71
2021/08/20 05:36:31;;;;;;;60.77;38.63;;;14.70;99.90;;;;;;5033588;28;20045;-71
2021/08/20 05:38:57;;;;;;;63.50;39.27;;;14.70;99.90;;;;;;5033146;28;20080;-71
2021/08/20 05:41:22;;;;;;;54.33;36.47;;;14.80;99.90;;;;;;5032781;28;20124;-71
2021/08/20 05:43:48;;;;;;;52.40;34.87;;;14.80;99.90;;;;;;5032867;28;20049;-71
2021/08/20 05:46:14;;;;;;;68.50;39.70;;;14.80;99.90;;;;;;5033528;28;20516;-71
2021/08/20 05:48:40;;;;;;;61.13;38.30;;;14.80;99.90;;;;;;5031990;28;20053;-71
2021/08/20 05:51:05;;;;;;;59.40;38.63;;;14.80;99.90;;;;;;5033335;28;20144;-71
2021/08/20 05:53:32;;;;;;;57.50;38.07;;;14.80;99.90;;;;;;5032497;28;20092;-71
2021/08/20 05:55:57;;;;;;;59.57;38.90;;;14.80;99.90;;;;;;5033118;28;20383;-71
2021/08/20 05:58:24;;;;;;;63.83;40.00;;;14.80;99.90;;;;;;5033222;28;20049;-71
2021/08/20 06:00:50;;;;;;;58.33;37.83;;;14.80;99.90;;;;;;5032040;28;20498;-71
2021/08/20 06:03:20;;;;;;;56.90;36.50;;;14.80;99.90;;;;;;5032808;28;20053;-71
2021/08/20 06:05:45;;;;;;;63.37;41.33;;;14.90;99.90;;;;;;5032672;28;20144;-71
2021/08/20 06:08:11;;;;;;;64.00;38.73;;;14.90;99.90;;;;;;5032235;28;20542;-71
2021/08/20 06:10:37;;;;;;;57.70;36.97;;;14.90;99.90;;;;;;5032867;28;20383;-71
2021/08/20 06:13:03;;;;;;;60.17;39.77;;;14.90;99.90;;;;;;5032274;28;20052;-72
2021/08/20 06:15:37;;;;;;;60.97;39.83;;;15.00;99.90;;;;;;5032167;28;20049;-71
2021/08/20 06:18:03;;;;;;;60.67;40.63;;;15.10;99.90;;;;;;5032111;28;20072;-72
2021/08/20 06:20:29;;;;;;;61.13;38.67;;;15.10;99.90;;;;;;5032399;28;20426;-72
2021/08/20 06:22:56;;;;;;;57.47;38.73;;;15.10;99.90;;;;;;5031371;28;20045;-71
2021/08/20 06:25:22;;;;;;;57.87;38.30;;;15.20;99.90;;;;;;5032916;28;20041;-71
2021/08/20 06:27:47;;;;;;;58.40;38.60;;;15.30;99.90;;;;;;5032090;28;20098;-71
2021/08/20 06:30:13;;;;;;;52.63;38.30;;;15.30;99.90;;;;;;5031911;28;20045;-71
2021/08/20 06:32:39;;;;;;;59.87;40.80;;;15.20;99.90;;;;;;5031896;28;20049;-72
2021/08/20 06:35:05;;;;;;;62.23;40.17;;;15.20;99.90;;;;;;5032689;28;20383;-72
2021/08/20 06:37:31;;;;;;;57.27;40.13;;;15.20;99.90;;;;;;5031707;28;20135;-71
2021/08/20 06:39:56;;;;;;;59.97;40.33;;;15.20;99.90;;;;;;5032055;28;20049;-71
2021/08/20 06:42:22;;;;;;;55.40;38.43;;;15.30;99.90;;;;;;5032707;28;20474;-72
2021/08/20 06:44:48;;;;;;;60.37;41.37;;;15.30;99.90;;;;;;5031416;28;20052;-72
2021/08/20 06:47:14;;;;;;;57.77;40.03;;;15.30;99.90;;;;;;5030916;28;20049;-71
2021/08/20 06:49:40;;;;;;;60.00;39.37;;;15.30;99.90;;;;;;5031537;28;20123;-72
2021/08/20 06:52:08;;;;;;;59.37;40.60;;;15.40;99.90;;;;;;5032191;28;20203;-71
2021/08/20 06:54:34;;;;;;;58.23;41.40;;;15.50;99.90;;;;;;5031881;28;20057;-72
2021/08/20 06:57:00;;;;;;;58.73;41.17;;;15.50;99.90;;;;;;5031004;28;20159;-71
2021/08/20 06:59:26;;;;;;;61.67;40.87;;;15.60;99.90;;;;;;5032017;28;20063;-71
2021/08/20 07:01:52;;;;;;;59.33;42.27;;;15.70;99.90;;;;;;5031789;28;20041;-72
2021/08/20 07:04:17;;;;;;;53.87;38.13;;;15.80;99.90;;;;;;5031623;28;20057;-72
2021/08/20 07:06:43;;;;;;;56.00;39.90;;;15.80;99.90;;;;;;5031763;28;20057;-72
2021/08/20 07:09:09;;;;;;;50.80;36.03;;;15.90;99.90;;;;;;5032336;28;20077;-72
2021/08/20 07:11:34;;;;;;;56.43;39.17;;;15.90;99.90;;;;;;5031375;28;20055;-73
2021/08/20 07:14:00;;;;;;;51.47;38.53;;;16.00;99.90;;;;;;5031636;28;20049;-70
2021/08/20 07:16:27;;;;;;;49.87;37.80;;;16.00;99.90;;;;;;5031873;28;20467;-70
2021/08/20 07:18:53;;;;;;;52.13;39.47;;;16.00;99.90;;;;;;5031035;28;20064;-70
2021/08/20 07:21:19;;;;;;;56.93;39.53;;;16.10;99.90;;;;;;5032238;28;20045;-70
2021/08/20 07:23:44;;;;;;;50.37;38.80;;;16.10;99.90;;;;;;5031397;28;20056;-71
2021/08/20 07:26:11;;;;;;;50.73;37.30;;;16.20;99.90;;;;;;5031181;28;20050;-70
2021/08/20 07:28:37;;;;;;;52.97;38.83;;;16.20;99.90;;;;;;5032070;28;20061;-70
2021/08/20 07:31:03;;;;;;;51.97;37.23;;;16.20;99.90;;;;;;5031220;28;20410;-70
2021/08/20 07:33:30;;;;;;;54.87;37.73;;;16.30;99.90;;;;;;5031194;28;20076;-69
2021/08/20 07:35:56;;;;;;;56.23;39.07;;;16.40;99.90;;;;;;5031740;28;20042;-68
2021/08/20 07:38:21;;;;;;;48.40;37.33;;;16.40;99.90;;;;;;5032032;28;20414;-69
2021/08/20 07:40:47;;;;;;;45.40;37.00;;;16.40;99.90;;;;;;5030772;28;20045;-69
2021/08/20 07:43:13;;;;;;;49.50;36.00;;;16.50;99.90;;;;;;5031967;28;20073;-69
2021/08/20 07:45:38;;;;;;;44.87;35.20;;;16.50;99.90;;;;;;5031557;28;20513;-69
2021/08/20 07:48:04;;;;;;;41.60;34.93;;;16.60;99.90;;;;;;5030654;28;20049;-69
2021/08/20 07:50:30;;;;;;;45.33;35.43;;;16.60;99.90;;;;;;5031620;28;20046;-70
2021/08/20 07:52:55;;;;;;;41.20;33.60;;;16.60;99.90;;;;;;5031287;28;20050;-69
2021/08/20 07:55:23;;;;;;;41.20;34.07;;;16.60;99.90;;;;;;5030942;28;20119;-69
2021/08/20 07:57:55;;;;;;;41.67;35.60;;;16.70;99.90;;;;;;5031119;28;20084;-69
2021/08/20 08:00:24;;;;;;;49.43;35.00;;;16.80;99.90;;;;;;5030331;28;20057;-69
2021/08/20 08:02:52;;;;;;;42.47;33.60;;;16.80;99.90;;;;;;5031092;28;20045;-70
2021/08/20 08:05:19;;;;;;;38.83;33.90;;;16.90;99.90;;;;;;5031667;28;20060;-70
2021/08/20 08:07:44;;;;;;;42.30;33.17;;;17.00;99.90;;;;;;5033945;28;20095;-70
2021/08/20 08:10:10;;;;;;;36.27;29.83;;;17.20;99.90;;;;;;5035377;28;20045;-70
2021/08/20 08:12:39;;;;;;;37.47;29.53;;;17.30;99.90;;;;;;5035070;28;20045;-70
2021/08/20 08:15:09;;;;;;;33.93;28.53;;;17.40;99.90;;;;;;5034036;28;20402;-70
2021/08/20 08:17:36;;;;;;;33.73;27.37;;;17.50;99.90;;;;;;5035038;28;20064;-70
2021/08/20 08:20:04;;;;;;;35.57;27.13;;;17.60;99.70;;;;;;5034471;28;20064;-70
2021/08/20 08:22:29;;;;;;;29.67;26.57;;;17.60;99.70;;;;;;5034156;28;20115;-70
2021/08/20 08:24:55;;;;;;;26.83;23.17;;;17.70;99.60;;;;;;5034837;28;20482;-70
2021/08/20 08:27:21;;;;;;;28.17;23.63;;;17.80;99.00;;;;;;5034673;28;20149;-71
2021/08/20 08:29:47;;;;;;;30.90;25.23;;;17.90;98.80;;;;;;5043311;28;20060;-68
2021/08/20 08:32:13;;;;;;;32.37;26.73;;;18.00;98.90;;;;;;5050772;28;20098;-68
2021/08/20 08:34:38;;;;;;;33.80;27.03;;;18.00;98.90;;;;;;5050921;28;20052;-70
2021/08/20 08:37:05;;;;;;;27.60;24.70;;;18.10;98.90;;;;;;5050434;28;20239;-70
2021/08/20 08:39:32;;;;;;;29.20;25.47;;;18.20;98.40;;;;;;5051106;28;20452;-72
2021/08/20 08:41:58;;;;;;;28.70;24.40;;;18.20;98.20;;;;;;5050443;28;20049;-72
2021/08/20 08:44:27;;;;;;;28.67;25.27;;;18.20;98.40;;;;;;5050423;28;20060;-71
2021/08/20 08:46:52;;;;;;;25.80;23.07;;;18.30;98.40;;;;;;5050537;28;20112;-71
2021/08/20 08:49:21;;;;;;;29.90;25.07;;;18.30;97.90;;;;;;5051647;28;20130;-71
2021/08/20 08:51:47;;;;;;;29.57;25.17;;;18.30;97.70;;;;;;5054142;28;20400;-71
2021/08/20 08:54:14;;;;;;;27.37;23.70;;;18.30;97.60;;;;;;5054013;28;20045;-71
2021/08/20 08:56:47;;;;;;;28.07;24.67;;;18.30;97.40;;;;;;5053659;28;20045;-70
2021/08/20 08:59:13;;;;;;;28.40;25.40;;;18.30;97.40;;;;;;5054114;28;20053;-71
2021/08/20 09:01:42;;;;;;;28.83;25.80;;;18.30;97.50;;;;;;5054093;28;20198;-70
2021/08/20 09:04:08;;;;;;;30.20;27.13;;;18.30;97.50;;;;;;5053362;28;20408;-70
2021/08/20 09:06:51;;;;;;;30.37;26.63;;;18.40;97.50;;;;;;5054193;28;20123;-71
2021/08/20 09:09:20;;;;;;;29.27;26.23;;;18.50;97.20;;;;;;5054276;28;20112;-70
2021/08/20 09:11:54;;;;;;;28.80;25.90;;;18.40;97.10;;;;;;5052751;28;20045;-69
2021/08/20 09:14:32;;;;;;;29.23;26.27;;;18.40;96.70;;;;;;5053871;28;20048;-70
2021/08/20 09:16:59;;;;;;;29.47;26.40;;;18.40;96.60;;;;;;5053571;28;20045;-71
2021/08/20 09:19:25;;;;;;;27.97;25.13;;;18.40;96.70;;;;;;5052381;28;20128;-69
2021/08/20 09:21:54;;;;;;;29.67;26.70;;;18.30;96.70;;;;;;5053624;28;20087;-70
2021/08/20 09:24:36;;;;;;;30.43;27.23;;;18.40;96.50;;;;;;5053667;28;20065;-69
2021/08/20 09:27:14;;;;;;;31.37;27.83;;;18.40;96.30;;;;;;5053340;28;20095;-69
2021/08/20 09:30:08;;;;;;;29.83;26.73;;;18.40;96.60;;;;;;5053296;28;20045;-70
2021/08/20 09:32:36;;;;;;;32.20;28.70;;;18.50;96.50;;;;;;5052937;28;20150;-69
2021/08/20 09:35:02;;;;;;;31.87;28.47;;;18.50;96.50;;;;;;5052443;28;20048;-69
2021/08/20 09:37:30;;;;;;;31.97;27.77;;;18.50;96.50;;;;;;5053343;28;20067;-68
2021/08/20 09:40:00;;;;;;;33.17;29.57;;;18.50;96.40;;;;;;5052330;28;20041;-68
2021/08/20 09:42:26;;;;;;;34.58;30.95;;;18.50;97.00;;;;;;5053015;28;20418;-68
2021/08/20 09:45:15;;;;;;;34.67;30.50;;;18.50;96.70;;;;;;5053195;28;20049;-67
2021/08/20 09:47:49;;;;;;;36.30;32.03;;;18.50;96.40;;;;;;5052360;28;20049;-68
2021/08/20 09:50:16;;;;;;;35.63;30.37;;;18.50;96.40;;;;;;5052415;28;20043;-68
2021/08/20 09:52:42;;;;;;;36.73;30.67;;;18.50;96.50;;;;;;5052042;28;20132;-68
2021/08/20 09:55:08;;;;;;;34.70;28.67;;;18.50;96.60;;;;;;5052957;28;20472;-67
2021/08/20 09:57:37;;;;;;;35.30;29.63;;;18.60;96.50;;;;;;5052742;28;20136;-68
2021/08/20 10:00:08;;;;;;;34.20;29.47;;;18.60;96.40;;;;;;5051676;28;20049;-69
2021/08/20 10:02:37;;;;;;;39.67;30.75;;;18.60;96.40;;;;;;5053231;28;20114;-68
2021/08/20 10:05:04;;;;;;;35.80;30.60;;;18.60;96.40;;;;;;5052535;28;20087;-69
2021/08/20 10:07:35;;;;;;;35.77;30.03;;;18.60;96.50;;;;;;5052486;28;20114;-68
2021/08/20 10:10:02;;;;;;;35.28;30.00;;;18.60;96.40;;;;;;5052858;28;20049;-68
2021/08/20 10:12:28;;;;;;;34.33;29.50;;;18.60;96.30;;;;;;5052920;28;20118;-68
2021/08/20 10:14:54;;;;;;;33.07;28.20;;;18.60;96.40;;;;;;5051686;28;20140;-68
2021/08/20 10:17:20;;;;;;;36.97;29.70;;;18.60;96.30;;;;;;5052460;28;20135;-68
2021/08/20 10:19:50;;;;;;;34.20;29.97;;;18.70;96.30;;;;;;5050912;28;20187;-69
2021/08/20 10:22:18;;;;;;;33.73;27.37;;;18.70;96.30;;;;;;5050090;28;20045;-69
2021/08/20 10:24:44;;;;;;;34.20;30.13;;;18.70;96.20;;;;;;5050591;28;20048;-68
2021/08/20 10:27:10;;;;;;;32.10;27.83;;;18.70;96.30;;;;;;5050635;28;20041;-69
2021/08/20 10:29:47;;;;;;;33.17;29.00;;;18.80;96.20;;;;;;5049029;28;20049;-68
2021/08/20 10:32:16;;;;;;;31.40;27.90;;;18.80;96.20;;;;;;5050634;28;20106;-69
2021/08/20 10:34:43;;;;;;;32.53;27.30;;;18.90;96.10;;;;;;5050908;28;20049;-68
2021/08/20 10:37:11;;;;;;;31.23;25.83;;;19.00;95.90;;;;;;5052408;28;20123;-69
2021/08/20 10:39:49;;;;;;;29.10;26.03;;;19.10;95.70;;;;;;5052490;28;20064;-69
2021/08/20 10:42:20;;;;;;;31.10;25.70;;;19.30;95.50;;;;;;5051774;28;20088;-68
2021/08/20 10:45:05;;;;;;;32.53;25.92;;;19.40;95.10;;;;;;5052008;28;20048;-69
2021/08/20 10:47:31;;;;;;;26.63;23.27;;;19.50;95.10;;;;;;5051804;28;20053;-68
2021/08/20 10:50:13;;;;;;;29.07;23.67;;;19.50;94.80;;;;;;5051346;28;20049;-69
2021/08/20 10:52:51;;;;;;;28.00;23.60;;;19.60;94.50;;;;;;5052259;28;20045;-69
2021/08/20 10:55:31;;;;;;;24.10;21.30;;;19.70;94.30;;;;;;5051995;28;20049;-69
2021/08/20 10:57:59;;;;;;;22.07;19.07;;;19.90;94.30;;;;;;5051136;28;20520;-68
2021/08/20 11:00:27;;;;;;;28.97;20.60;;;20.10;94.10;;;;;;5052294;28;20060;-68
2021/08/20 11:03:02;;;;;;;24.63;19.07;;;20.30;93.50;;;;;;5050852;28;20418;-69
2021/08/20 11:05:41;;;;;;;21.40;18.50;;;20.30;93.10;;;;;;5052003;28;20059;-68
2021/08/20 11:08:31;;;;;;;25.70;19.67;;;20.40;92.60;;;;;;5052071;28;20045;-69
2021/08/20 11:10:59;;;;;;;21.17;18.17;;;20.40;92.20;;;;;;5050925;28;20084;-67
2021/08/20 11:13:25;;;;;;;19.10;16.53;;;20.30;92.50;;;;;;5051617;28;20490;-68
2021/08/20 11:15:53;;;;;;;23.80;18.20;;;20.30;92.50;;;;;;5051244;28;20501;-68
2021/08/20 11:18:49;;;;;;;19.88;17.45;;;20.30;92.70;;;;;;5050529;28;20044;-68
2021/08/20 11:21:46;;;;;;;19.90;17.80;;;20.30;92.60;;;;;;5048068;28;20048;-68
2021/08/20 11:24:20;;;;;;;19.58;16.77;;;20.30;92.60;;;;;;5050900;28;20401;-69
2021/08/20 11:26:46;;;;;;;19.63;16.83;;;20.40;92.60;;;;;;5051902;28;20122;-68
2021/08/20 11:29:16;;;;;;;22.20;17.13;;;20.50;92.30;;;;;;5051567;28;20417;-68
2021/08/20 11:31:42;;;;;;;19.42;17.40;;;20.70;92.00;;;;;;5050501;28;20124;-68
2021/08/20 11:34:08;;;;;;;20.70;16.42;;;21.00;91.40;;;;;;5051351;28;20136;-68
2021/08/20 11:36:34;;;;;;;19.10;16.38;;;21.20;90.80;;;;;;5051564;28;20077;-67
2021/08/20 11:39:01;;;;;;;17.58;15.82;;;21.20;90.50;;;;;;5050539;28;20049;-70
2021/08/20 11:41:44;;;;;;;17.92;14.32;;;21.20;90.40;;;;;;5052987;28;20126;-68
2021/08/20 11:44:12;;;;;;;16.70;15.07;;;21.10;90.10;;;;;;5055951;28;20087;-67
2021/08/20 11:46:45;;;;;;;17.40;14.02;;;21.10;90.10;;;;;;5054931;28;20554;-68
2021/08/20 11:49:22;;;;;;;17.02;15.23;;;21.00;90.10;;;;;;5055653;28;20041;-68
2021/08/20 11:51:50;;;;;;;16.42;14.57;;;20.90;90.30;;;;;;5055587;28;20068;-68
2021/08/20 11:54:16;;;;;;;18.67;14.82;;;20.80;90.50;;;;;;5054823;28;20045;-68
2021/08/20 11:56:53;;;;;;;17.33;15.55;;;20.80;90.70;;;;;;5055196;28;20052;-68
2021/08/20 11:59:19;;;;;;;17.50;15.27;;;20.70;90.90;;;;;;5054625;28;20041;-68
2021/08/20 12:01:52;;;;;;;17.95;16.10;;;20.70;91.30;;;;;;5054932;28;20548;-69
2021/08/20 12:04:22;;;;;;;17.15;14.23;;;20.70;91.40;;;;;;5055122;28;20478;-68
2021/08/20 12:06:48;;;;;;;19.00;16.33;;;20.60;91.50;;;;;;5054437;28;20053;-69
2021/08/20 12:09:18;;;;;;;18.60;14.70;;;20.50;91.40;;;;;;5055333;28;20072;-68
2021/08/20 12:11:52;;;;;;;14.45;12.95;;;20.50;91.40;;;;;;5055234;28;20076;-68
2021/08/20 12:14:23;;;;;;;15.68;12.52;;;20.40;91.30;;;;;;5054343;28;20102;-68
2021/08/20 12:16:51;;;;;;;14.25;12.82;;;20.30;91.30;;;;;;5055011;28;20136;-69
2021/08/20 12:19:22;;;;;;;18.02;13.95;;;20.30;91.40;;;;;;5055139;28;20059;-68
2021/08/20 12:21:49;;;;;;;;;;;20.30;91.40;;;;;;5054321;28;20489;-68
2021/08/20 12:24:28;;;;;;;15.17;12.37;;;20.30;91.70;;;;;;5054904;28;19924;-68
2021/08/20 12:27:10;;;;;;;14.98;11.52;;;20.30;91.30;;;;;;5054353;28;20151;-69
2021/08/20 12:29:37;;;;;;;14.93;11.57;;;20.40;91.10;;;;;;5054197;28;20041;-68
2021/08/20 12:32:05;;;;;;;14.75;11.32;;;20.60;90.80;;;;;;5054587;28;20049;-69